sensor_id;sensor_type;location;lat;lon;timestamp;P1;durP1;ratioP1;P2;durP2;ratioP2
66400;SDS011;53211;45.040;38.788;2022-12-10T00:01:22;679.85;;;145.05;;
66400;SDS011;53211;45.040;38.788;2022-12-10T00:03:49;678.40;;;143.10;;
66400;SDS011;53211;45.040;38.788;2022-12-10T00:06:16;681.22;;;144.48;;
66400;SDS011;53211;45.040;38.788;2022-12-10T00:08:44;680.60;;;143.55;;
66400;SDS011;53211;45.040;38.788;2022-12-10T00:11:11;679.10;;;143.10;;
66400;SDS011;53211;45.040;38.788;2022-12-10T00:13:39;747.95;;;138.48;;
66400;SDS011;53211;45.040;38.788;2022-12-10T00:16:07;683.90;;;145.40;;
66400;SDS011;53211;45.040;38.788;2022-12-10T00:18:36;670.25;;;144.10;;
66400;SDS011;53211;45.040;38.788;2022-12-10T00:21:03;680.25;;;144.95;;
66400;SDS011;53211;45.040;38.788;2022-12-10T00:23:34;685.47;;;144.23;;
66400;SDS011;53211;45.040;38.788;2022-12-10T00:26:08;681.00;;;143.50;;
66400;SDS011;53211;45.040;38.788;2022-12-10T00:28:39;692.25;;;143.80;;
66400;SDS011;53211;45.040;38.788;2022-12-10T00:31:08;689.20;;;144.85;;
66400;SDS011;53211;45.040;38.788;2022-12-10T00:33:35;676.40;;;140.60;;
66400;SDS011;53211;45.040;38.788;2022-12-10T00:36:05;682.77;;;141.27;;
66400;SDS011;53211;45.040;38.788;2022-12-10T00:38:34;682.35;;;142.05;;
66400;SDS011;53211;45.040;38.788;2022-12-10T00:41:00;682.93;;;141.70;;
66400;SDS011;53211;45.040;38.788;2022-12-10T00:43:26;689.15;;;144.20;;
66400;SDS011;53211;45.040;38.788;2022-12-10T00:45:52;691.50;;;147.60;;
66400;SDS011;53211;45.040;38.788;2022-12-10T00:48:21;692.72;;;145.65;;
66400;SDS011;53211;45.040;38.788;2022-12-10T00:50:56;687.40;;;147.10;;
66400;SDS011;53211;45.040;38.788;2022-12-10T00:53:29;696.22;;;148.85;;
66400;SDS011;53211;45.040;38.788;2022-12-10T00:55:57;695.65;;;145.38;;
66400;SDS011;53211;45.040;38.788;2022-12-10T00:58:26;692.00;;;144.80;;
66400;SDS011;53211;45.040;38.788;2022-12-10T01:00:53;695.50;;;146.60;;
66400;SDS011;53211;45.040;38.788;2022-12-10T01:03:19;695.00;;;144.00;;
66400;SDS011;53211;45.040;38.788;2022-12-10T01:05:45;693.07;;;144.30;;
66400;SDS011;53211;45.040;38.788;2022-12-10T01:08:12;695.50;;;144.60;;
66400;SDS011;53211;45.040;38.788;2022-12-10T01:10:38;692.80;;;145.20;;
66400;SDS011;53211;45.040;38.788;2022-12-10T01:13:04;693.50;;;145.10;;
66400;SDS011;53211;45.040;38.788;2022-12-10T01:15:30;692.75;;;145.25;;
66400;SDS011;53211;45.040;38.788;2022-12-10T01:17:56;695.17;;;145.43;;
66400;SDS011;53211;45.040;38.788;2022-12-10T01:20:22;734.97;;;141.00;;
66400;SDS011;53211;45.040;38.788;2022-12-10T01:22:48;701.22;;;144.10;;
66400;SDS011;53211;45.040;38.788;2022-12-10T01:25:14;695.00;;;146.30;;
66400;SDS011;53211;45.040;38.788;2022-12-10T01:27:40;688.10;;;144.37;;
66400;SDS011;53211;45.040;38.788;2022-12-10T01:30:06;687.47;;;147.83;;
66400;SDS011;53211;45.040;38.788;2022-12-10T01:32:35;696.57;;;146.40;;
66400;SDS011;53211;45.040;38.788;2022-12-10T01:35:01;699.10;;;148.20;;
66400;SDS011;53211;45.040;38.788;2022-12-10T01:37:27;695.40;;;144.10;;
66400;SDS011;53211;45.040;38.788;2022-12-10T01:39:53;699.70;;;154.80;;
66400;SDS011;53211;45.040;38.788;2022-12-10T01:42:19;698.50;;;149.93;;
66400;SDS011;53211;45.040;38.788;2022-12-10T01:47:14;687.60;;;145.70;;
66400;SDS011;53211;45.040;38.788;2022-12-10T01:49:40;697.40;;;146.85;;
66400;SDS011;53211;45.040;38.788;2022-12-10T01:52:07;693.35;;;143.82;;
66400;SDS011;53211;45.040;38.788;2022-12-10T01:54:40;696.75;;;145.85;;
66400;SDS011;53211;45.040;38.788;2022-12-10T01:57:09;696.60;;;147.30;;
66400;SDS011;53211;45.040;38.788;2022-12-10T01:59:36;687.60;;;145.00;;
66400;SDS011;53211;45.040;38.788;2022-12-10T02:05:15;697.00;;;146.75;;
66400;SDS011;53211;45.040;38.788;2022-12-10T02:08:08;739.75;;;138.80;;
66400;SDS011;53211;45.040;38.788;2022-12-10T02:13:46;716.35;;;143.90;;
66400;SDS011;53211;45.040;38.788;2022-12-10T02:16:19;698.17;;;148.67;;
66400;SDS011;53211;45.040;38.788;2022-12-10T02:19:00;693.80;;;146.00;;
66400;SDS011;53211;45.040;38.788;2022-12-10T02:21:37;693.88;;;148.38;;
66400;SDS011;53211;45.040;38.788;2022-12-10T02:24:07;685.60;;;145.90;;
66400;SDS011;53211;45.040;38.788;2022-12-10T02:29:26;692.90;;;148.50;;
66400;SDS011;53211;45.040;38.788;2022-12-10T02:31:55;689.55;;;146.20;;
66400;SDS011;53211;45.040;38.788;2022-12-10T02:34:31;684.20;;;144.43;;
66400;SDS011;53211;45.040;38.788;2022-12-10T02:37:04;688.00;;;147.20;;
66400;SDS011;53211;45.040;38.788;2022-12-10T02:39:38;686.60;;;147.10;;
66400;SDS011;53211;45.040;38.788;2022-12-10T02:42:07;684.30;;;145.10;;
66400;SDS011;53211;45.040;38.788;2022-12-10T02:44:37;695.93;;;147.90;;
66400;SDS011;53211;45.040;38.788;2022-12-10T02:47:06;693.13;;;145.10;;
66400;SDS011;53211;45.040;38.788;2022-12-10T02:49:37;697.70;;;150.63;;
66400;SDS011;53211;45.040;38.788;2022-12-10T02:52:06;702.15;;;144.88;;
66400;SDS011;53211;45.040;38.788;2022-12-10T02:54:42;693.50;;;145.60;;
66400;SDS011;53211;45.040;38.788;2022-12-10T03:00:05;691.40;;;144.65;;
66400;SDS011;53211;45.040;38.788;2022-12-10T03:05:19;695.90;;;146.20;;
66400;SDS011;53211;45.040;38.788;2022-12-10T03:10:28;694.90;;;146.00;;
66400;SDS011;53211;45.040;38.788;2022-12-10T03:12:59;692.50;;;144.40;;
66400;SDS011;53211;45.040;38.788;2022-12-10T03:15:26;691.45;;;144.88;;
66400;SDS011;53211;45.040;38.788;2022-12-10T03:17:55;694.83;;;148.10;;
66400;SDS011;53211;45.040;38.788;2022-12-10T03:20:22;683.70;;;144.80;;
66400;SDS011;53211;45.040;38.788;2022-12-10T03:22:49;697.30;;;147.20;;
66400;SDS011;53211;45.040;38.788;2022-12-10T03:25:21;689.53;;;144.57;;
66400;SDS011;53211;45.040;38.788;2022-12-10T03:27:51;691.10;;;144.10;;
66400;SDS011;53211;45.040;38.788;2022-12-10T03:30:19;693.20;;;144.50;;
66400;SDS011;53211;45.040;38.788;2022-12-10T03:32:45;687.20;;;145.10;;
66400;SDS011;53211;45.040;38.788;2022-12-10T03:35:12;703.42;;;145.55;;
66400;SDS011;53211;45.040;38.788;2022-12-10T03:37:39;702.30;;;145.10;;
66400;SDS011;53211;45.040;38.788;2022-12-10T03:40:06;702.50;;;145.20;;
66400;SDS011;53211;45.040;38.788;2022-12-10T03:42:34;701.55;;;143.90;;
66400;SDS011;53211;45.040;38.788;2022-12-10T03:45:02;722.67;;;142.47;;
66400;SDS011;53211;45.040;38.788;2022-12-10T03:47:28;706.20;;;146.90;;
66400;SDS011;53211;45.040;38.788;2022-12-10T03:49:54;702.70;;;143.70;;
66400;SDS011;53211;45.040;38.788;2022-12-10T03:52:20;704.55;;;144.85;;
66400;SDS011;53211;45.040;38.788;2022-12-10T03:54:46;702.50;;;144.30;;
66400;SDS011;53211;45.040;38.788;2022-12-10T03:57:12;700.80;;;143.77;;
66400;SDS011;53211;45.040;38.788;2022-12-10T03:59:38;728.00;;;142.90;;
66400;SDS011;53211;45.040;38.788;2022-12-10T04:02:04;694.95;;;145.00;;
66400;SDS011;53211;45.040;38.788;2022-12-10T04:04:30;694.40;;;146.17;;
66400;SDS011;53211;45.040;38.788;2022-12-10T04:06:56;695.90;;;146.00;;
66400;SDS011;53211;45.040;38.788;2022-12-10T04:09:22;686.67;;;144.23;;
66400;SDS011;53211;45.040;38.788;2022-12-10T04:11:48;696.20;;;148.77;;
66400;SDS011;53211;45.040;38.788;2022-12-10T04:14:14;701.20;;;147.73;;
66400;SDS011;53211;45.040;38.788;2022-12-10T04:16:59;708.43;;;144.37;;
66400;SDS011;53211;45.040;38.788;2022-12-10T04:19:26;708.55;;;144.30;;
66400;SDS011;53211;45.040;38.788;2022-12-10T04:21:53;693.40;;;146.20;;
66400;SDS011;53211;45.040;38.788;2022-12-10T04:24:37;693.30;;;145.30;;
66400;SDS011;53211;45.040;38.788;2022-12-10T04:27:23;691.17;;;145.27;;
66400;SDS011;53211;45.040;38.788;2022-12-10T04:29:51;684.80;;;145.60;;
66400;SDS011;53211;45.040;38.788;2022-12-10T04:32:18;695.50;;;148.30;;
66400;SDS011;53211;45.040;38.788;2022-12-10T04:34:45;706.80;;;144.75;;
66400;SDS011;53211;45.040;38.788;2022-12-10T04:37:11;700.90;;;143.00;;
66400;SDS011;53211;45.040;38.788;2022-12-10T04:39:38;706.27;;;146.27;;
66400;SDS011;53211;45.040;38.788;2022-12-10T04:42:04;716.60;;;145.20;;
66400;SDS011;53211;45.040;38.788;2022-12-10T04:44:31;706.90;;;144.87;;
66400;SDS011;53211;45.040;38.788;2022-12-10T04:46:57;721.73;;;143.53;;
66400;SDS011;53211;45.040;38.788;2022-12-10T04:49:24;705.50;;;145.15;;
66400;SDS011;53211;45.040;38.788;2022-12-10T04:51:50;704.50;;;144.10;;
66400;SDS011;53211;45.040;38.788;2022-12-10T04:54:18;712.75;;;144.90;;
66400;SDS011;53211;45.040;38.788;2022-12-10T04:56:45;709.93;;;143.87;;
66400;SDS011;53211;45.040;38.788;2022-12-10T04:59:11;714.17;;;144.40;;
66400;SDS011;53211;45.040;38.788;2022-12-10T05:01:37;718.15;;;143.30;;
66400;SDS011;53211;45.040;38.788;2022-12-10T05:04:05;699.00;;;143.80;;
66400;SDS011;53211;45.040;38.788;2022-12-10T05:06:32;698.90;;;143.80;;
66400;SDS011;53211;45.040;38.788;2022-12-10T05:08:59;699.30;;;145.40;;
66400;SDS011;53211;45.040;38.788;2022-12-10T05:11:28;697.55;;;146.02;;
66400;SDS011;53211;45.040;38.788;2022-12-10T05:13:55;694.33;;;145.47;;
66400;SDS011;53211;45.040;38.788;2022-12-10T05:16:25;711.57;;;144.53;;
66400;SDS011;53211;45.040;38.788;2022-12-10T05:18:53;706.80;;;145.00;;
66400;SDS011;53211;45.040;38.788;2022-12-10T05:21:20;696.20;;;146.30;;
66400;SDS011;53211;45.040;38.788;2022-12-10T05:23:48;700.03;;;145.00;;
66400;SDS011;53211;45.040;38.788;2022-12-10T05:26:20;693.20;;;143.90;;
66400;SDS011;53211;45.040;38.788;2022-12-10T05:28:50;700.25;;;147.35;;
66400;SDS011;53211;45.040;38.788;2022-12-10T05:31:26;693.55;;;144.40;;
66400;SDS011;53211;45.040;38.788;2022-12-10T05:33:55;696.10;;;145.85;;
66400;SDS011;53211;45.040;38.788;2022-12-10T05:36:25;692.50;;;144.70;;
66400;SDS011;53211;45.040;38.788;2022-12-10T05:38:53;696.45;;;146.05;;
66400;SDS011;53211;45.040;38.788;2022-12-10T05:41:22;695.03;;;145.20;;
66400;SDS011;53211;45.040;38.788;2022-12-10T05:43:50;716.60;;;143.80;;
66400;SDS011;53211;45.040;38.788;2022-12-10T05:46:20;694.80;;;144.70;;
66400;SDS011;53211;45.040;38.788;2022-12-10T05:48:48;711.10;;;142.40;;
66400;SDS011;53211;45.040;38.788;2022-12-10T05:51:15;699.00;;;145.65;;
66400;SDS011;53211;45.040;38.788;2022-12-10T05:53:43;696.90;;;145.55;;
66400;SDS011;53211;45.040;38.788;2022-12-10T05:56:10;698.80;;;145.50;;
66400;SDS011;53211;45.040;38.788;2022-12-10T05:58:41;700.15;;;145.95;;
66400;SDS011;53211;45.040;38.788;2022-12-10T06:01:12;701.35;;;146.20;;
66400;SDS011;53211;45.040;38.788;2022-12-10T06:03:44;702.88;;;145.90;;
66400;SDS011;53211;45.040;38.788;2022-12-10T06:06:10;702.63;;;146.60;;
66400;SDS011;53211;45.040;38.788;2022-12-10T06:08:38;703.90;;;146.00;;
66400;SDS011;53211;45.040;38.788;2022-12-10T06:11:07;706.90;;;147.30;;
66400;SDS011;53211;45.040;38.788;2022-12-10T06:13:35;710.40;;;147.80;;
66400;SDS011;53211;45.040;38.788;2022-12-10T06:16:05;712.23;;;145.60;;
66400;SDS011;53211;45.040;38.788;2022-12-10T06:18:33;719.90;;;148.70;;
66400;SDS011;53211;45.040;38.788;2022-12-10T06:21:02;711.37;;;145.93;;
66400;SDS011;53211;45.040;38.788;2022-12-10T06:23:29;713.93;;;146.77;;
66400;SDS011;53211;45.040;38.788;2022-12-10T06:25:55;710.05;;;145.20;;
66400;SDS011;53211;45.040;38.788;2022-12-10T06:28:21;713.95;;;146.40;;
66400;SDS011;53211;45.040;38.788;2022-12-10T06:30:47;706.15;;;148.00;;
66400;SDS011;53211;45.040;38.788;2022-12-10T06:33:13;688.10;;;149.20;;
66400;SDS011;53211;45.040;38.788;2022-12-10T06:35:39;713.72;;;147.63;;
66400;SDS011;53211;45.040;38.788;2022-12-10T06:38:05;693.80;;;148.65;;
66400;SDS011;53211;45.040;38.788;2022-12-10T06:40:31;719.35;;;149.00;;
66400;SDS011;53211;45.040;38.788;2022-12-10T06:42:56;689.40;;;147.80;;
66400;SDS011;53211;45.040;38.788;2022-12-10T06:45:22;693.10;;;148.50;;
66400;SDS011;53211;45.040;38.788;2022-12-10T06:47:48;698.78;;;150.30;;
66400;SDS011;53211;45.040;38.788;2022-12-10T06:50:14;695.85;;;149.70;;
66400;SDS011;53211;45.040;38.788;2022-12-10T06:52:41;707.50;;;150.00;;
66400;SDS011;53211;45.040;38.788;2022-12-10T06:55:07;715.90;;;147.50;;
66400;SDS011;53211;45.040;38.788;2022-12-10T06:57:33;699.90;;;149.75;;
66400;SDS011;53211;45.040;38.788;2022-12-10T06:59:59;695.50;;;150.20;;
66400;SDS011;53211;45.040;38.788;2022-12-10T07:02:25;703.13;;;151.53;;
66400;SDS011;53211;45.040;38.788;2022-12-10T07:04:51;700.83;;;149.37;;
66400;SDS011;53211;45.040;38.788;2022-12-10T07:07:21;708.40;;;152.10;;
66400;SDS011;53211;45.040;38.788;2022-12-10T07:09:48;710.88;;;151.20;;
66400;SDS011;53211;45.040;38.788;2022-12-10T07:12:14;708.15;;;151.52;;
66400;SDS011;53211;45.040;38.788;2022-12-10T07:14:40;714.93;;;151.23;;
66400;SDS011;53211;45.040;38.788;2022-12-10T07:17:06;702.50;;;150.25;;
66400;SDS011;53211;45.040;38.788;2022-12-10T07:19:32;708.23;;;155.50;;
66400;SDS011;53211;45.040;38.788;2022-12-10T07:21:58;746.60;;;146.70;;
66400;SDS011;53211;45.040;38.788;2022-12-10T07:24:24;701.92;;;151.25;;
66400;SDS011;53211;45.040;38.788;2022-12-10T07:26:50;702.87;;;152.40;;
66400;SDS011;53211;45.040;38.788;2022-12-10T07:29:18;723.40;;;149.95;;
66400;SDS011;53211;45.040;38.788;2022-12-10T07:31:46;724.70;;;150.00;;
66400;SDS011;53211;45.040;38.788;2022-12-10T07:34:16;724.55;;;148.05;;
66400;SDS011;53211;45.040;38.788;2022-12-10T07:36:43;707.53;;;149.80;;
66400;SDS011;53211;45.040;38.788;2022-12-10T07:39:09;705.10;;;153.05;;
66400;SDS011;53211;45.040;38.788;2022-12-10T07:41:43;721.67;;;148.73;;
66400;SDS011;53211;45.040;38.788;2022-12-10T07:44:11;714.15;;;154.52;;
66400;SDS011;53211;45.040;38.788;2022-12-10T07:46:38;705.75;;;154.10;;
66400;SDS011;53211;45.040;38.788;2022-12-10T07:49:04;706.20;;;151.50;;
66400;SDS011;53211;45.040;38.788;2022-12-10T07:51:30;712.40;;;150.27;;
66400;SDS011;53211;45.040;38.788;2022-12-10T07:53:56;707.40;;;152.17;;
66400;SDS011;53211;45.040;38.788;2022-12-10T07:56:22;703.80;;;150.50;;
66400;SDS011;53211;45.040;38.788;2022-12-10T07:58:50;717.90;;;151.17;;
66400;SDS011;53211;45.040;38.788;2022-12-10T08:01:17;724.15;;;152.90;;
66400;SDS011;53211;45.040;38.788;2022-12-10T08:03:49;714.95;;;151.30;;
66400;SDS011;53211;45.040;38.788;2022-12-10T08:06:16;706.20;;;150.67;;
66400;SDS011;53211;45.040;38.788;2022-12-10T08:08:44;730.70;;;152.48;;
66400;SDS011;53211;45.040;38.788;2022-12-10T08:11:11;764.00;;;149.45;;
66400;SDS011;53211;45.040;38.788;2022-12-10T08:13:38;711.60;;;149.40;;
66400;SDS011;53211;45.040;38.788;2022-12-10T08:16:06;717.80;;;152.40;;
66400;SDS011;53211;45.040;38.788;2022-12-10T08:18:35;717.45;;;152.85;;
66400;SDS011;53211;45.040;38.788;2022-12-10T08:21:08;710.20;;;151.90;;
66400;SDS011;53211;45.040;38.788;2022-12-10T08:23:37;707.00;;;153.50;;
66400;SDS011;53211;45.040;38.788;2022-12-10T08:26:04;715.23;;;154.27;;
66400;SDS011;53211;45.040;38.788;2022-12-10T08:28:31;712.83;;;151.23;;
66400;SDS011;53211;45.040;38.788;2022-12-10T08:30:58;720.57;;;152.37;;
66400;SDS011;53211;45.040;38.788;2022-12-10T08:33:24;724.10;;;159.70;;
66400;SDS011;53211;45.040;38.788;2022-12-10T08:35:50;710.05;;;161.00;;
66400;SDS011;53211;45.040;38.788;2022-12-10T08:38:16;705.20;;;154.50;;
66400;SDS011;53211;45.040;38.788;2022-12-10T08:40:44;706.20;;;156.20;;
66400;SDS011;53211;45.040;38.788;2022-12-10T08:43:10;706.90;;;155.10;;
66400;SDS011;53211;45.040;38.788;2022-12-10T08:45:36;711.73;;;152.47;;
66400;SDS011;53211;45.040;38.788;2022-12-10T08:48:02;731.50;;;155.10;;
66400;SDS011;53211;45.040;38.788;2022-12-10T08:50:28;702.85;;;154.50;;
66400;SDS011;53211;45.040;38.788;2022-12-10T08:52:55;702.50;;;153.25;;
66400;SDS011;53211;45.040;38.788;2022-12-10T08:55:20;708.70;;;154.80;;
66400;SDS011;53211;45.040;38.788;2022-12-10T08:57:46;735.97;;;151.50;;
66400;SDS011;53211;45.040;38.788;2022-12-10T09:00:13;705.40;;;152.50;;
66400;SDS011;53211;45.040;38.788;2022-12-10T09:02:39;714.55;;;154.70;;
66400;SDS011;53211;45.040;38.788;2022-12-10T09:05:05;707.75;;;152.70;;
66400;SDS011;53211;45.040;38.788;2022-12-10T09:07:33;707.55;;;152.35;;
66400;SDS011;53211;45.040;38.788;2022-12-10T09:09:59;719.22;;;154.13;;
66400;SDS011;53211;45.040;38.788;2022-12-10T09:12:24;716.10;;;153.65;;
66400;SDS011;53211;45.040;38.788;2022-12-10T09:14:51;716.20;;;151.40;;
66400;SDS011;53211;45.040;38.788;2022-12-10T09:17:17;726.00;;;153.35;;
66400;SDS011;53211;45.040;38.788;2022-12-10T09:19:43;736.80;;;150.00;;
66400;SDS011;53211;45.040;38.788;2022-12-10T09:22:09;710.55;;;149.63;;
66400;SDS011;53211;45.040;38.788;2022-12-10T09:24:35;733.50;;;151.50;;
66400;SDS011;53211;45.040;38.788;2022-12-10T09:27:01;716.47;;;152.07;;
66400;SDS011;53211;45.040;38.788;2022-12-10T09:29:28;721.07;;;151.10;;
66400;SDS011;53211;45.040;38.788;2022-12-10T09:31:54;731.63;;;151.70;;
66400;SDS011;53211;45.040;38.788;2022-12-10T09:34:20;751.80;;;148.65;;
66400;SDS011;53211;45.040;38.788;2022-12-10T09:36:46;752.10;;;148.93;;
66400;SDS011;53211;45.040;38.788;2022-12-10T09:39:13;729.30;;;154.13;;
66400;SDS011;53211;45.040;38.788;2022-12-10T09:44:32;731.75;;;154.40;;
66400;SDS011;53211;45.040;38.788;2022-12-10T09:47:03;754.00;;;150.30;;
66400;SDS011;53211;45.040;38.788;2022-12-10T09:49:42;752.00;;;150.50;;
66400;SDS011;53211;45.040;38.788;2022-12-10T09:52:14;736.20;;;159.05;;
66400;SDS011;53211;45.040;38.788;2022-12-10T09:54:48;733.50;;;155.10;;
66400;SDS011;53211;45.040;38.788;2022-12-10T09:57:35;735.15;;;154.55;;
66400;SDS011;53211;45.040;38.788;2022-12-10T10:02:39;771.50;;;150.05;;
66400;SDS011;53211;45.040;38.788;2022-12-10T10:07:31;737.00;;;155.90;;
66400;SDS011;53211;45.040;38.788;2022-12-10T10:10:20;735.55;;;153.50;;
66400;SDS011;53211;45.040;38.788;2022-12-10T10:12:47;736.40;;;152.90;;
66400;SDS011;53211;45.040;38.788;2022-12-10T10:15:16;731.67;;;155.95;;
66400;SDS011;53211;45.040;38.788;2022-12-10T10:17:47;723.20;;;157.40;;
66400;SDS011;53211;45.040;38.788;2022-12-10T10:20:14;731.90;;;154.20;;
66400;SDS011;53211;45.040;38.788;2022-12-10T10:22:41;735.85;;;154.15;;
66400;SDS011;53211;45.040;38.788;2022-12-10T10:25:12;731.95;;;153.25;;
66400;SDS011;53211;45.040;38.788;2022-12-10T10:27:40;768.25;;;151.02;;
66400;SDS011;53211;45.040;38.788;2022-12-10T10:30:07;765.50;;;155.93;;
66400;SDS011;53211;45.040;38.788;2022-12-10T10:35:19;765.55;;;155.50;;
66400;SDS011;53211;45.040;38.788;2022-12-10T10:37:46;758.70;;;152.30;;
66400;SDS011;53211;45.040;38.788;2022-12-10T10:43:13;760.47;;;155.27;;
66400;SDS011;53211;45.040;38.788;2022-12-10T10:45:47;767.20;;;154.10;;
66400;SDS011;53211;45.040;38.788;2022-12-10T10:48:22;778.50;;;161.65;;
66400;SDS011;53211;45.040;38.788;2022-12-10T10:50:54;783.07;;;159.97;;
66400;SDS011;53211;45.040;38.788;2022-12-10T10:53:31;766.30;;;154.75;;
66400;SDS011;53211;45.040;38.788;2022-12-10T10:56:22;728.20;;;165.65;;
66400;SDS011;53211;45.040;38.788;2022-12-10T11:01:18;731.40;;;166.00;;
66400;SDS011;53211;45.040;38.788;2022-12-10T11:03:48;730.70;;;165.35;;
66400;SDS011;53211;45.040;38.788;2022-12-10T11:06:18;727.95;;;160.45;;
66400;SDS011;53211;45.040;38.788;2022-12-10T11:08:45;732.00;;;161.90;;
66400;SDS011;53211;45.040;38.788;2022-12-10T11:13:47;740.70;;;163.20;;
66400;SDS011;53211;45.040;38.788;2022-12-10T11:18:54;761.57;;;161.13;;
66400;SDS011;53211;45.040;38.788;2022-12-10T11:21:27;767.30;;;155.40;;
66400;SDS011;53211;45.040;38.788;2022-12-10T11:23:56;773.55;;;156.90;;
66400;SDS011;53211;45.040;38.788;2022-12-10T11:34:30;756.35;;;163.50;;
66400;SDS011;53211;45.040;38.788;2022-12-10T11:43:03;736.83;;;171.07;;
66400;SDS011;53211;45.040;38.788;2022-12-10T11:46:01;734.63;;;171.17;;
66400;SDS011;53211;45.040;38.788;2022-12-10T11:49:00;728.70;;;173.65;;
66400;SDS011;53211;45.040;38.788;2022-12-10T11:52:01;679.05;;;205.20;;
66400;SDS011;53211;45.040;38.788;2022-12-10T11:57:17;708.15;;;184.15;;
66400;SDS011;53211;45.040;38.788;2022-12-10T12:08:23;727.35;;;179.75;;
66400;SDS011;53211;45.040;38.788;2022-12-10T12:14:39;672.23;;;233.10;;
66400;SDS011;53211;45.040;38.788;2022-12-10T12:17:19;702.35;;;197.98;;
66400;SDS011;53211;45.040;38.788;2022-12-10T12:19:57;684.27;;;215.47;;
66400;SDS011;53211;45.040;38.788;2022-12-10T12:22:28;722.10;;;181.65;;
66400;SDS011;53211;45.040;38.788;2022-12-10T12:25:02;702.43;;;205.73;;
66400;SDS011;53211;45.040;38.788;2022-12-10T12:30:13;671.60;;;219.20;;
66400;SDS011;53211;45.040;38.788;2022-12-10T12:32:51;673.15;;;218.80;;
66400;SDS011;53211;45.040;38.788;2022-12-10T12:41:09;689.65;;;199.65;;
66400;SDS011;53211;45.040;38.788;2022-12-10T12:46:02;671.90;;;206.50;;
66400;SDS011;53211;45.040;38.788;2022-12-10T12:48:41;683.40;;;198.90;;
66400;SDS011;53211;45.040;38.788;2022-12-10T12:54:12;683.30;;;198.10;;
66400;SDS011;53211;45.040;38.788;2022-12-10T13:04:49;693.17;;;188.73;;
66400;SDS011;53211;45.040;38.788;2022-12-10T13:09:48;690.03;;;185.53;;
66400;SDS011;53211;45.040;38.788;2022-12-10T13:12:29;716.70;;;173.90;;
66400;SDS011;53211;45.040;38.788;2022-12-10T13:20:40;696.60;;;180.80;;
66400;SDS011;53211;45.040;38.788;2022-12-10T13:25:56;696.00;;;180.43;;
66400;SDS011;53211;45.040;38.788;2022-12-10T13:33:52;692.30;;;177.50;;
66400;SDS011;53211;45.040;38.788;2022-12-10T13:37:05;685.07;;;181.13;;
66400;SDS011;53211;45.040;38.788;2022-12-10T13:39:59;697.95;;;173.35;;
66400;SDS011;53211;45.040;38.788;2022-12-10T13:42:28;691.90;;;174.40;;
66400;SDS011;53211;45.040;38.788;2022-12-10T13:47:50;690.37;;;167.40;;
66400;SDS011;53211;45.040;38.788;2022-12-10T14:01:41;731.05;;;186.95;;
66400;SDS011;53211;45.040;38.788;2022-12-10T14:06:57;682.03;;;204.63;;
66400;SDS011;53211;45.040;38.788;2022-12-10T14:09:27;682.60;;;190.80;;
66400;SDS011;53211;45.040;38.788;2022-12-10T14:12:03;673.05;;;188.63;;
66400;SDS011;53211;45.040;38.788;2022-12-10T14:14:40;672.60;;;189.93;;
66400;SDS011;53211;45.040;38.788;2022-12-10T14:17:13;679.10;;;187.50;;
66400;SDS011;53211;45.040;38.788;2022-12-10T14:19:42;680.00;;;182.85;;
66400;SDS011;53211;45.040;38.788;2022-12-10T14:22:15;680.40;;;174.30;;
66400;SDS011;53211;45.040;38.788;2022-12-10T14:24:44;671.47;;;185.37;;
66400;SDS011;53211;45.040;38.788;2022-12-10T14:27:24;669.05;;;186.50;;
66400;SDS011;53211;45.040;38.788;2022-12-10T14:29:52;661.40;;;185.60;;
66400;SDS011;53211;45.040;38.788;2022-12-10T14:32:39;659.67;;;187.43;;
66400;SDS011;53211;45.040;38.788;2022-12-10T14:35:06;666.60;;;184.70;;
66400;SDS011;53211;45.040;38.788;2022-12-10T14:37:39;668.80;;;180.35;;
66400;SDS011;53211;45.040;38.788;2022-12-10T14:40:08;669.05;;;175.85;;
66400;SDS011;53211;45.040;38.788;2022-12-10T14:42:43;683.00;;;170.20;;
66400;SDS011;53211;45.040;38.788;2022-12-10T14:45:11;668.77;;;180.77;;
66400;SDS011;53211;45.040;38.788;2022-12-10T14:47:39;670.10;;;175.50;;
66400;SDS011;53211;45.040;38.788;2022-12-10T14:50:12;661.33;;;179.77;;
66400;SDS011;53211;45.040;38.788;2022-12-10T14:52:43;663.40;;;184.20;;
66400;SDS011;53211;45.040;38.788;2022-12-10T14:55:15;660.95;;;182.32;;
66400;SDS011;53211;45.040;38.788;2022-12-10T14:57:44;654.50;;;184.80;;
66400;SDS011;53211;45.040;38.788;2022-12-10T15:00:18;661.70;;;185.10;;
66400;SDS011;53211;45.040;38.788;2022-12-10T15:02:52;659.30;;;183.20;;
66400;SDS011;53211;45.040;38.788;2022-12-10T15:05:26;663.95;;;183.15;;
66400;SDS011;53211;45.040;38.788;2022-12-10T15:07:55;652.00;;;187.25;;
66400;SDS011;53211;45.040;38.788;2022-12-10T15:10:43;653.00;;;183.90;;
66400;SDS011;53211;45.040;38.788;2022-12-10T15:15:57;658.27;;;182.20;;
66400;SDS011;53211;45.040;38.788;2022-12-10T15:18:34;650.05;;;181.50;;
66400;SDS011;53211;45.040;38.788;2022-12-10T15:21:04;653.55;;;183.30;;
66400;SDS011;53211;45.040;38.788;2022-12-10T15:23:34;656.60;;;179.90;;
66400;SDS011;53211;45.040;38.788;2022-12-10T15:28:36;673.10;;;170.43;;
66400;SDS011;53211;45.040;38.788;2022-12-10T15:33:57;674.05;;;169.35;;
66400;SDS011;53211;45.040;38.788;2022-12-10T15:36:33;659.87;;;175.37;;
66400;SDS011;53211;45.040;38.788;2022-12-10T15:39:21;662.25;;;172.10;;
66400;SDS011;53211;45.040;38.788;2022-12-10T15:42:01;680.70;;;164.33;;
66400;SDS011;53211;45.040;38.788;2022-12-10T15:47:14;666.60;;;171.50;;
66400;SDS011;53211;45.040;38.788;2022-12-10T15:49:47;666.50;;;170.60;;
66400;SDS011;53211;45.040;38.788;2022-12-10T15:52:14;662.30;;;169.70;;
66400;SDS011;53211;45.040;38.788;2022-12-10T15:54:43;663.35;;;171.15;;
66400;SDS011;53211;45.040;38.788;2022-12-10T15:57:11;647.17;;;181.05;;
66400;SDS011;53211;45.040;38.788;2022-12-10T15:59:50;645.00;;;177.80;;
66400;SDS011;53211;45.040;38.788;2022-12-10T16:02:37;657.50;;;170.10;;
66400;SDS011;53211;45.040;38.788;2022-12-10T16:07:36;653.15;;;170.75;;
66400;SDS011;53211;45.040;38.788;2022-12-10T16:10:02;658.95;;;170.50;;
66400;SDS011;53211;45.040;38.788;2022-12-10T16:12:30;655.50;;;171.70;;
66400;SDS011;53211;45.040;38.788;2022-12-10T16:15:07;665.35;;;167.55;;
66400;SDS011;53211;45.040;38.788;2022-12-10T16:17:36;654.60;;;170.40;;